sensor_id;sensor_type;location;lat;lon;timestamp;P1;durP1;ratioP1;P2;durP2;ratioP2
5867;SDS011;2960;49.142;7.768;2023-08-31T00:02:03;12.20;;;5.20;;
5867;SDS011;2960;49.142;7.768;2023-08-31T00:04:30;12.53;;;5.90;;
5867;SDS011;2960;49.142;7.768;2023-08-31T00:06:58;12.00;;;5.70;;
5867;SDS011;2960;49.142;7.768;2023-08-31T00:09:27;11.80;;;5.77;;
5867;SDS011;2960;49.142;7.768;2023-08-31T00:11:54;11.53;;;5.20;;
5867;SDS011;2960;49.142;7.768;2023-08-31T00:14:22;12.30;;;5.77;;
5867;SDS011;2960;49.142;7.768;2023-08-31T00:16:50;11.80;;;5.50;;
5867;SDS011;2960;49.142;7.768;2023-08-31T00:19:17;12.80;;;5.53;;
5867;SDS011;2960;49.142;7.768;2023-08-31T00:21:45;12.00;;;5.87;;
5867;SDS011;2960;49.142;7.768;2023-08-31T00:24:13;11.90;;;5.40;;
5867;SDS011;2960;49.142;7.768;2023-08-31T00:26:42;11.33;;;5.40;;
5867;SDS011;2960;49.142;7.768;2023-08-31T00:29:09;11.80;;;5.30;;
5867;SDS011;2960;49.142;7.768;2023-08-31T00:31:36;11.60;;;5.20;;
5867;SDS011;2960;49.142;7.768;2023-08-31T00:34:04;11.60;;;5.67;;
5867;SDS011;2960;49.142;7.768;2023-08-31T00:36:32;11.70;;;5.50;;
5867;SDS011;2960;49.142;7.768;2023-08-31T00:39:02;11.50;;;5.30;;
5867;SDS011;2960;49.142;7.768;2023-08-31T00:41:33;11.70;;;5.50;;
5867;SDS011;2960;49.142;7.768;2023-08-31T00:44:02;12.50;;;5.50;;
5867;SDS011;2960;49.142;7.768;2023-08-31T00:46:30;11.67;;;5.77;;
5867;SDS011;2960;49.142;7.768;2023-08-31T00:48:57;11.80;;;5.57;;
5867;SDS011;2960;49.142;7.768;2023-08-31T00:51:24;11.97;;;5.40;;
5867;SDS011;2960;49.142;7.768;2023-08-31T00:53:51;12.10;;;5.70;;
5867;SDS011;2960;49.142;7.768;2023-08-31T00:56:19;11.80;;;5.50;;
5867;SDS011;2960;49.142;7.768;2023-08-31T00:58:47;12.20;;;5.47;;
5867;SDS011;2960;49.142;7.768;2023-08-31T01:01:18;12.10;;;6.10;;
5867;SDS011;2960;49.142;7.768;2023-08-31T01:03:53;12.37;;;6.07;;
5867;SDS011;2960;49.142;7.768;2023-08-31T01:06:33;11.43;;;5.37;;
5867;SDS011;2960;49.142;7.768;2023-08-31T01:09:13;11.63;;;5.40;;
5867;SDS011;2960;49.142;7.768;2023-08-31T01:11:50;12.33;;;5.60;;
5867;SDS011;2960;49.142;7.768;2023-08-31T01:14:23;11.40;;;5.20;;
5867;SDS011;2960;49.142;7.768;2023-08-31T01:17:00;11.67;;;5.53;;
5867;SDS011;2960;49.142;7.768;2023-08-31T01:22:16;11.73;;;5.30;;
5867;SDS011;2960;49.142;7.768;2023-08-31T01:24:55;12.03;;;5.57;;
5867;SDS011;2960;49.142;7.768;2023-08-31T01:27:23;11.57;;;5.57;;
5867;SDS011;2960;49.142;7.768;2023-08-31T01:29:50;11.50;;;5.37;;
5867;SDS011;2960;49.142;7.768;2023-08-31T01:32:21;11.10;;;4.80;;
5867;SDS011;2960;49.142;7.768;2023-08-31T01:34:48;11.50;;;4.80;;
5867;SDS011;2960;49.142;7.768;2023-08-31T01:37:17;10.97;;;4.67;;
5867;SDS011;2960;49.142;7.768;2023-08-31T01:39:52;11.37;;;4.70;;
5867;SDS011;2960;49.142;7.768;2023-08-31T01:42:25;11.03;;;4.60;;
5867;SDS011;2960;49.142;7.768;2023-08-31T01:44:54;11.47;;;5.10;;
5867;SDS011;2960;49.142;7.768;2023-08-31T01:47:23;11.67;;;5.07;;
5867;SDS011;2960;49.142;7.768;2023-08-31T01:49:51;12.17;;;5.17;;
5867;SDS011;2960;49.142;7.768;2023-08-31T01:52:18;11.23;;;5.03;;
5867;SDS011;2960;49.142;7.768;2023-08-31T01:54:45;11.23;;;4.60;;
5867;SDS011;2960;49.142;7.768;2023-08-31T01:57:14;11.53;;;5.20;;
5867;SDS011;2960;49.142;7.768;2023-08-31T01:59:41;11.40;;;5.27;;
5867;SDS011;2960;49.142;7.768;2023-08-31T02:02:08;11.30;;;4.97;;
5867;SDS011;2960;49.142;7.768;2023-08-31T02:04:35;11.33;;;4.97;;
5867;SDS011;2960;49.142;7.768;2023-08-31T02:07:02;13.23;;;5.10;;
5867;SDS011;2960;49.142;7.768;2023-08-31T02:09:29;11.83;;;5.00;;
5867;SDS011;2960;49.142;7.768;2023-08-31T02:11:56;11.23;;;5.00;;
5867;SDS011;2960;49.142;7.768;2023-08-31T02:14:26;11.60;;;5.20;;
5867;SDS011;2960;49.142;7.768;2023-08-31T02:16:53;11.87;;;5.30;;
5867;SDS011;2960;49.142;7.768;2023-08-31T02:19:20;11.20;;;4.80;;
5867;SDS011;2960;49.142;7.768;2023-08-31T02:21:47;11.50;;;4.87;;
5867;SDS011;2960;49.142;7.768;2023-08-31T02:24:14;11.43;;;5.00;;
5867;SDS011;2960;49.142;7.768;2023-08-31T02:26:41;10.93;;;4.53;;
5867;SDS011;2960;49.142;7.768;2023-08-31T02:29:08;14.83;;;5.30;;
5867;SDS011;2960;49.142;7.768;2023-08-31T02:31:36;11.57;;;4.97;;
5867;SDS011;2960;49.142;7.768;2023-08-31T02:34:03;11.33;;;4.87;;
5867;SDS011;2960;49.142;7.768;2023-08-31T02:36:31;11.27;;;5.10;;
5867;SDS011;2960;49.142;7.768;2023-08-31T02:38:58;12.23;;;5.13;;
5867;SDS011;2960;49.142;7.768;2023-08-31T02:41:25;11.30;;;4.70;;
5867;SDS011;2960;49.142;7.768;2023-08-31T02:43:53;11.90;;;5.13;;
5867;SDS011;2960;49.142;7.768;2023-08-31T02:46:22;11.87;;;5.00;;
5867;SDS011;2960;49.142;7.768;2023-08-31T02:48:51;11.40;;;4.80;;
5867;SDS011;2960;49.142;7.768;2023-08-31T02:51:18;11.00;;;4.60;;
5867;SDS011;2960;49.142;7.768;2023-08-31T02:53:46;11.23;;;4.77;;
5867;SDS011;2960;49.142;7.768;2023-08-31T02:56:13;11.20;;;4.73;;
5867;SDS011;2960;49.142;7.768;2023-08-31T02:58:41;11.43;;;5.10;;
5867;SDS011;2960;49.142;7.768;2023-08-31T03:01:08;11.23;;;4.90;;
5867;SDS011;2960;49.142;7.768;2023-08-31T03:03:37;10.87;;;4.63;;
5867;SDS011;2960;49.142;7.768;2023-08-31T03:06:07;13.13;;;4.83;;
5867;SDS011;2960;49.142;7.768;2023-08-31T03:08:35;11.07;;;4.70;;
5867;SDS011;2960;49.142;7.768;2023-08-31T03:11:03;11.93;;;5.10;;
5867;SDS011;2960;49.142;7.768;2023-08-31T03:13:31;11.07;;;4.73;;
5867;SDS011;2960;49.142;7.768;2023-08-31T03:15:59;11.60;;;4.90;;
5867;SDS011;2960;49.142;7.768;2023-08-31T03:18:28;11.70;;;4.90;;
5867;SDS011;2960;49.142;7.768;2023-08-31T03:20:55;11.40;;;4.93;;
5867;SDS011;2960;49.142;7.768;2023-08-31T03:23:24;11.70;;;4.97;;
5867;SDS011;2960;49.142;7.768;2023-08-31T03:25:51;11.33;;;4.90;;
5867;SDS011;2960;49.142;7.768;2023-08-31T03:28:18;11.10;;;4.67;;
5867;SDS011;2960;49.142;7.768;2023-08-31T03:30:49;12.33;;;5.37;;
5867;SDS011;2960;49.142;7.768;2023-08-31T03:33:21;11.20;;;4.67;;
5867;SDS011;2960;49.142;7.768;2023-08-31T03:35:48;11.50;;;4.87;;
5867;SDS011;2960;49.142;7.768;2023-08-31T03:38:15;11.77;;;4.63;;
5867;SDS011;2960;49.142;7.768;2023-08-31T03:40:43;11.37;;;4.73;;
5867;SDS011;2960;49.142;7.768;2023-08-31T03:43:19;10.90;;;4.57;;
5867;SDS011;2960;49.142;7.768;2023-08-31T03:45:47;12.50;;;5.00;;
5867;SDS011;2960;49.142;7.768;2023-08-31T03:48:14;11.40;;;4.77;;
5867;SDS011;2960;49.142;7.768;2023-08-31T03:50:41;11.50;;;4.50;;
5867;SDS011;2960;49.142;7.768;2023-08-31T03:53:08;11.33;;;4.93;;
5867;SDS011;2960;49.142;7.768;2023-08-31T03:55:35;11.10;;;4.43;;
5867;SDS011;2960;49.142;7.768;2023-08-31T03:58:04;11.20;;;4.57;;
5867;SDS011;2960;49.142;7.768;2023-08-31T04:00:31;11.80;;;4.50;;
5867;SDS011;2960;49.142;7.768;2023-08-31T04:02:58;11.20;;;4.60;;
5867;SDS011;2960;49.142;7.768;2023-08-31T04:05:26;10.97;;;4.50;;
5867;SDS011;2960;49.142;7.768;2023-08-31T04:07:53;11.60;;;4.57;;
5867;SDS011;2960;49.142;7.768;2023-08-31T04:10:20;11.30;;;4.40;;
5867;SDS011;2960;49.142;7.768;2023-08-31T04:12:47;10.90;;;4.00;;
5867;SDS011;2960;49.142;7.768;2023-08-31T04:15:16;11.00;;;4.40;;
5867;SDS011;2960;49.142;7.768;2023-08-31T04:17:43;11.40;;;4.10;;
5867;SDS011;2960;49.142;7.768;2023-08-31T04:20:14;10.73;;;4.10;;
5867;SDS011;2960;49.142;7.768;2023-08-31T04:22:42;11.17;;;4.23;;
5867;SDS011;2960;49.142;7.768;2023-08-31T04:25:09;11.13;;;4.50;;
5867;SDS011;2960;49.142;7.768;2023-08-31T04:27:36;10.90;;;4.37;;
5867;SDS011;2960;49.142;7.768;2023-08-31T04:30:05;11.40;;;4.20;;
5867;SDS011;2960;49.142;7.768;2023-08-31T04:32:35;11.00;;;4.30;;
5867;SDS011;2960;49.142;7.768;2023-08-31T04:35:02;10.50;;;3.80;;
5867;SDS011;2960;49.142;7.768;2023-08-31T04:37:31;11.00;;;4.30;;
5867;SDS011;2960;49.142;7.768;2023-08-31T04:39:58;11.20;;;4.23;;
5867;SDS011;2960;49.142;7.768;2023-08-31T04:42:25;11.13;;;4.40;;
5867;SDS011;2960;49.142;7.768;2023-08-31T04:44:52;11.20;;;4.17;;
5867;SDS011;2960;49.142;7.768;2023-08-31T04:47:20;12.90;;;3.73;;
5867;SDS011;2960;49.142;7.768;2023-08-31T04:49:48;10.73;;;3.67;;
5867;SDS011;2960;49.142;7.768;2023-08-31T04:52:15;10.80;;;3.90;;
5867;SDS011;2960;49.142;7.768;2023-08-31T04:54:42;16.63;;;4.23;;
5867;SDS011;2960;49.142;7.768;2023-08-31T04:57:09;11.00;;;4.07;;
5867;SDS011;2960;49.142;7.768;2023-08-31T04:59:36;10.90;;;4.20;;
5867;SDS011;2960;49.142;7.768;2023-08-31T05:02:03;10.80;;;4.00;;
5867;SDS011;2960;49.142;7.768;2023-08-31T05:04:30;11.20;;;4.60;;
5867;SDS011;2960;49.142;7.768;2023-08-31T05:06:59;11.20;;;4.47;;
5867;SDS011;2960;49.142;7.768;2023-08-31T05:09:26;10.97;;;4.20;;
5867;SDS011;2960;49.142;7.768;2023-08-31T05:11:57;11.20;;;4.40;;
5867;SDS011;2960;49.142;7.768;2023-08-31T05:14:24;11.20;;;4.43;;
5867;SDS011;2960;49.142;7.768;2023-08-31T05:16:51;11.87;;;4.50;;
5867;SDS011;2960;49.142;7.768;2023-08-31T05:19:18;10.87;;;4.30;;
5867;SDS011;2960;49.142;7.768;2023-08-31T05:21:45;10.80;;;4.30;;
5867;SDS011;2960;49.142;7.768;2023-08-31T05:24:16;11.30;;;4.20;;
5867;SDS011;2960;49.142;7.768;2023-08-31T05:26:43;10.73;;;4.10;;
5867;SDS011;2960;49.142;7.768;2023-08-31T05:29:10;10.90;;;4.00;;
5867;SDS011;2960;49.142;7.768;2023-08-31T05:31:37;10.60;;;4.07;;
5867;SDS011;2960;49.142;7.768;2023-08-31T05:34:04;11.00;;;3.90;;
5867;SDS011;2960;49.142;7.768;2023-08-31T05:36:31;12.50;;;4.40;;
5867;SDS011;2960;49.142;7.768;2023-08-31T05:38:58;11.53;;;4.43;;
5867;SDS011;2960;49.142;7.768;2023-08-31T05:41:27;11.30;;;4.23;;
5867;SDS011;2960;49.142;7.768;2023-08-31T05:43:54;10.97;;;4.50;;
5867;SDS011;2960;49.142;7.768;2023-08-31T05:46:21;12.50;;;4.10;;
5867;SDS011;2960;49.142;7.768;2023-08-31T05:48:48;12.50;;;4.30;;
5867;SDS011;2960;49.142;7.768;2023-08-31T05:51:18;10.70;;;4.20;;
5867;SDS011;2960;49.142;7.768;2023-08-31T05:53:45;11.20;;;4.10;;
5867;SDS011;2960;49.142;7.768;2023-08-31T05:56:12;11.00;;;4.40;;
5867;SDS011;2960;49.142;7.768;2023-08-31T05:58:41;11.30;;;4.50;;
5867;SDS011;2960;49.142;7.768;2023-08-31T06:01:08;10.90;;;4.43;;
5867;SDS011;2960;49.142;7.768;2023-08-31T06:03:36;11.10;;;4.63;;
5867;SDS011;2960;49.142;7.768;2023-08-31T06:06:03;13.10;;;4.83;;
5867;SDS011;2960;49.142;7.768;2023-08-31T06:08:30;11.47;;;4.50;;
5867;SDS011;2960;49.142;7.768;2023-08-31T06:10:57;10.60;;;4.30;;
5867;SDS011;2960;49.142;7.768;2023-08-31T06:13:24;11.00;;;4.30;;
5867;SDS011;2960;49.142;7.768;2023-08-31T06:15:54;11.60;;;4.60;;
5867;SDS011;2960;49.142;7.768;2023-08-31T06:18:23;12.17;;;4.80;;
5867;SDS011;2960;49.142;7.768;2023-08-31T06:20:50;10.83;;;4.33;;
5867;SDS011;2960;49.142;7.768;2023-08-31T06:23:17;11.20;;;4.87;;
5867;SDS011;2960;49.142;7.768;2023-08-31T06:25:44;11.00;;;4.60;;
5867;SDS011;2960;49.142;7.768;2023-08-31T06:28:11;11.10;;;4.70;;
5867;SDS011;2960;49.142;7.768;2023-08-31T06:30:38;10.97;;;4.70;;
5867;SDS011;2960;49.142;7.768;2023-08-31T06:33:12;11.13;;;4.60;;
5867;SDS011;2960;49.142;7.768;2023-08-31T06:35:39;11.40;;;4.80;;
5867;SDS011;2960;49.142;7.768;2023-08-31T06:38:07;11.20;;;4.77;;
5867;SDS011;2960;49.142;7.768;2023-08-31T06:40:34;11.40;;;4.53;;
5867;SDS011;2960;49.142;7.768;2023-08-31T06:43:01;11.20;;;4.97;;
5867;SDS011;2960;49.142;7.768;2023-08-31T06:45:28;11.17;;;4.77;;
5867;SDS011;2960;49.142;7.768;2023-08-31T06:47:55;14.23;;;5.23;;
5867;SDS011;2960;49.142;7.768;2023-08-31T06:50:24;11.20;;;4.80;;
5867;SDS011;2960;49.142;7.768;2023-08-31T06:52:51;11.60;;;5.27;;
5867;SDS011;2960;49.142;7.768;2023-08-31T06:55:18;10.97;;;4.90;;
5867;SDS011;2960;49.142;7.768;2023-08-31T06:57:45;11.33;;;4.87;;
5867;SDS011;2960;49.142;7.768;2023-08-31T07:00:12;12.07;;;5.33;;
5867;SDS011;2960;49.142;7.768;2023-08-31T07:02:40;11.30;;;4.80;;
5867;SDS011;2960;49.142;7.768;2023-08-31T07:05:09;11.27;;;4.73;;
5867;SDS011;2960;49.142;7.768;2023-08-31T07:07:38;11.60;;;5.03;;
5867;SDS011;2960;49.142;7.768;2023-08-31T07:10:05;11.20;;;4.57;;
5867;SDS011;2960;49.142;7.768;2023-08-31T07:12:36;12.13;;;4.67;;
5867;SDS011;2960;49.142;7.768;2023-08-31T07:15:03;11.57;;;4.77;;
5867;SDS011;2960;49.142;7.768;2023-08-31T07:17:31;11.30;;;4.60;;
5867;SDS011;2960;49.142;7.768;2023-08-31T07:19:59;11.37;;;4.97;;
5867;SDS011;2960;49.142;7.768;2023-08-31T07:22:26;11.60;;;4.83;;
5867;SDS011;2960;49.142;7.768;2023-08-31T07:24:54;11.60;;;5.30;;
5867;SDS011;2960;49.142;7.768;2023-08-31T07:27:21;11.80;;;5.00;;
5867;SDS011;2960;49.142;7.768;2023-08-31T07:29:48;11.50;;;5.00;;
5867;SDS011;2960;49.142;7.768;2023-08-31T07:32:16;12.00;;;4.90;;
5867;SDS011;2960;49.142;7.768;2023-08-31T07:34:43;11.83;;;5.33;;
5867;SDS011;2960;49.142;7.768;2023-08-31T07:37:12;11.07;;;4.80;;
5867;SDS011;2960;49.142;7.768;2023-08-31T07:39:39;11.50;;;5.00;;
5867;SDS011;2960;49.142;7.768;2023-08-31T07:42:08;11.90;;;5.33;;
5867;SDS011;2960;49.142;7.768;2023-08-31T07:44:35;12.43;;;5.43;;
5867;SDS011;2960;49.142;7.768;2023-08-31T07:47:02;11.80;;;5.67;;
5867;SDS011;2960;49.142;7.768;2023-08-31T07:49:29;12.07;;;5.00;;
5867;SDS011;2960;49.142;7.768;2023-08-31T07:51:56;11.80;;;5.40;;
5867;SDS011;2960;49.142;7.768;2023-08-31T07:54:23;11.37;;;5.00;;
5867;SDS011;2960;49.142;7.768;2023-08-31T07:56:51;11.77;;;5.20;;
5867;SDS011;2960;49.142;7.768;2023-08-31T07:59:19;11.77;;;5.50;;
5867;SDS011;2960;49.142;7.768;2023-08-31T08:01:47;12.87;;;5.77;;
5867;SDS011;2960;49.142;7.768;2023-08-31T08:04:14;11.73;;;5.40;;
5867;SDS011;2960;49.142;7.768;2023-08-31T08:06:44;13.07;;;5.50;;
5867;SDS011;2960;49.142;7.768;2023-08-31T08:09:11;11.37;;;5.20;;
5867;SDS011;2960;49.142;7.768;2023-08-31T08:11:38;12.13;;;5.57;;
5867;SDS011;2960;49.142;7.768;2023-08-31T08:14:07;12.50;;;6.00;;
5867;SDS011;2960;49.142;7.768;2023-08-31T08:16:35;11.60;;;5.37;;
5867;SDS011;2960;49.142;7.768;2023-08-31T08:19:02;12.30;;;6.00;;
5867;SDS011;2960;49.142;7.768;2023-08-31T08:21:32;11.77;;;5.47;;
5867;SDS011;2960;49.142;7.768;2023-08-31T08:23:59;12.23;;;5.47;;
5867;SDS011;2960;49.142;7.768;2023-08-31T08:26:28;12.30;;;5.37;;
5867;SDS011;2960;49.142;7.768;2023-08-31T08:28:55;12.10;;;5.60;;
5867;SDS011;2960;49.142;7.768;2023-08-31T08:31:22;12.30;;;5.60;;
5867;SDS011;2960;49.142;7.768;2023-08-31T08:33:51;12.80;;;6.10;;
5867;SDS011;2960;49.142;7.768;2023-08-31T08:36:18;13.37;;;6.17;;
5867;SDS011;2960;49.142;7.768;2023-08-31T08:38:45;12.83;;;6.30;;
5867;SDS011;2960;49.142;7.768;2023-08-31T08:41:13;12.77;;;5.70;;
5867;SDS011;2960;49.142;7.768;2023-08-31T08:43:44;13.60;;;6.10;;
5867;SDS011;2960;49.142;7.768;2023-08-31T08:46:14;12.50;;;5.60;;
5867;SDS011;2960;49.142;7.768;2023-08-31T08:48:42;12.33;;;5.70;;
5867;SDS011;2960;49.142;7.768;2023-08-31T08:51:12;15.10;;;6.00;;
5867;SDS011;2960;49.142;7.768;2023-08-31T08:53:40;12.23;;;6.00;;
5867;SDS011;2960;49.142;7.768;2023-08-31T08:56:12;12.27;;;5.80;;
5867;SDS011;2960;49.142;7.768;2023-08-31T08:58:39;12.30;;;5.90;;
5867;SDS011;2960;49.142;7.768;2023-08-31T09:01:06;12.30;;;6.20;;
5867;SDS011;2960;49.142;7.768;2023-08-31T09:03:34;12.57;;;5.87;;
5867;SDS011;2960;49.142;7.768;2023-08-31T09:06:01;13.70;;;6.10;;
5867;SDS011;2960;49.142;7.768;2023-08-31T09:08:34;13.77;;;5.87;;
5867;SDS011;2960;49.142;7.768;2023-08-31T09:11:02;11.73;;;5.60;;
5867;SDS011;2960;49.142;7.768;2023-08-31T09:13:29;11.60;;;5.60;;
5867;SDS011;2960;49.142;7.768;2023-08-31T09:15:56;12.40;;;6.00;;
5867;SDS011;2960;49.142;7.768;2023-08-31T09:18:24;12.23;;;5.90;;
5867;SDS011;2960;49.142;7.768;2023-08-31T09:20:53;12.30;;;6.03;;
5867;SDS011;2960;49.142;7.768;2023-08-31T09:23:22;11.53;;;5.30;;
5867;SDS011;2960;49.142;7.768;2023-08-31T09:25:52;12.10;;;4.97;;
5867;SDS011;2960;49.142;7.768;2023-08-31T09:28:22;12.43;;;6.00;;
5867;SDS011;2960;49.142;7.768;2023-08-31T09:30:52;12.10;;;5.90;;
5867;SDS011;2960;49.142;7.768;2023-08-31T09:33:30;12.63;;;5.97;;
5867;SDS011;2960;49.142;7.768;2023-08-31T09:36:00;13.00;;;5.80;;
5867;SDS011;2960;49.142;7.768;2023-08-31T09:38:29;12.13;;;5.53;;
5867;SDS011;2960;49.142;7.768;2023-08-31T09:41:03;12.07;;;5.77;;
5867;SDS011;2960;49.142;7.768;2023-08-31T09:43:31;12.00;;;5.43;;
5867;SDS011;2960;49.142;7.768;2023-08-31T09:45:58;12.07;;;5.20;;
5867;SDS011;2960;49.142;7.768;2023-08-31T09:48:26;11.70;;;5.10;;
5867;SDS011;2960;49.142;7.768;2023-08-31T09:50:54;11.47;;;5.23;;
5867;SDS011;2960;49.142;7.768;2023-08-31T09:53:23;12.03;;;6.00;;
5867;SDS011;2960;49.142;7.768;2023-08-31T09:55:51;12.10;;;5.90;;
5867;SDS011;2960;49.142;7.768;2023-08-31T09:58:20;11.50;;;5.20;;
5867;SDS011;2960;49.142;7.768;2023-08-31T10:00:49;12.07;;;5.37;;
5867;SDS011;2960;49.142;7.768;2023-08-31T10:03:17;12.00;;;5.47;;
5867;SDS011;2960;49.142;7.768;2023-08-31T10:05:47;12.27;;;5.70;;
5867;SDS011;2960;49.142;7.768;2023-08-31T10:08:16;12.10;;;5.40;;
5867;SDS011;2960;49.142;7.768;2023-08-31T10:10:44;11.87;;;5.40;;
5867;SDS011;2960;49.142;7.768;2023-08-31T10:13:11;12.80;;;5.27;;
5867;SDS011;2960;49.142;7.768;2023-08-31T10:15:41;12.20;;;5.20;;
5867;SDS011;2960;49.142;7.768;2023-08-31T10:18:10;11.97;;;5.63;;
5867;SDS011;2960;49.142;7.768;2023-08-31T10:20:40;15.53;;;5.80;;
5867;SDS011;2960;49.142;7.768;2023-08-31T10:23:10;11.97;;;5.23;;
5867;SDS011;2960;49.142;7.768;2023-08-31T10:28:38;12.63;;;5.50;;
5867;SDS011;2960;49.142;7.768;2023-08-31T10:31:09;12.10;;;5.30;;
5867;SDS011;2960;49.142;7.768;2023-08-31T10:33:42;11.90;;;5.10;;
5867;SDS011;2960;49.142;7.768;2023-08-31T10:36:12;12.90;;;5.70;;
5867;SDS011;2960;49.142;7.768;2023-08-31T10:38:41;12.47;;;5.47;;
5867;SDS011;2960;49.142;7.768;2023-08-31T10:41:18;11.80;;;5.30;;
5867;SDS011;2960;49.142;7.768;2023-08-31T10:43:47;15.60;;;5.27;;
5867;SDS011;2960;49.142;7.768;2023-08-31T10:46:27;11.80;;;5.37;;
5867;SDS011;2960;49.142;7.768;2023-08-31T10:48:57;12.77;;;5.70;;
5867;SDS011;2960;49.142;7.768;2023-08-31T10:51:26;18.70;;;5.80;;
5867;SDS011;2960;49.142;7.768;2023-08-31T10:54:05;13.10;;;5.43;;
5867;SDS011;2960;49.142;7.768;2023-08-31T10:56:42;12.03;;;5.33;;
5867;SDS011;2960;49.142;7.768;2023-08-31T10:59:40;12.00;;;5.23;;
5867;SDS011;2960;49.142;7.768;2023-08-31T11:02:30;11.63;;;4.90;;
5867;SDS011;2960;49.142;7.768;2023-08-31T11:05:02;11.80;;;4.90;;
5867;SDS011;2960;49.142;7.768;2023-08-31T11:07:34;12.10;;;5.23;;
5867;SDS011;2960;49.142;7.768;2023-08-31T11:10:09;13.00;;;6.00;;
5867;SDS011;2960;49.142;7.768;2023-08-31T11:12:42;12.37;;;5.90;;
5867;SDS011;2960;49.142;7.768;2023-08-31T11:15:11;13.10;;;6.20;;
5867;SDS011;2960;49.142;7.768;2023-08-31T11:17:41;13.13;;;6.00;;
5867;SDS011;2960;49.142;7.768;2023-08-31T11:20:12;12.60;;;5.83;;
5867;SDS011;2960;49.142;7.768;2023-08-31T11:22:41;12.20;;;5.80;;
5867;SDS011;2960;49.142;7.768;2023-08-31T11:25:11;12.50;;;5.60;;
5867;SDS011;2960;49.142;7.768;2023-08-31T11:27:39;12.90;;;5.63;;
5867;SDS011;2960;49.142;7.768;2023-08-31T11:30:13;12.20;;;6.00;;
5867;SDS011;2960;49.142;7.768;2023-08-31T11:32:46;12.33;;;5.60;;
5867;SDS011;2960;49.142;7.768;2023-08-31T11:35:16;12.07;;;5.70;;
5867;SDS011;2960;49.142;7.768;2023-08-31T11:37:44;11.80;;;5.27;;
5867;SDS011;2960;49.142;7.768;2023-08-31T11:40:15;13.13;;;5.50;;
5867;SDS011;2960;49.142;7.768;2023-08-31T11:42:43;15.20;;;6.00;;
5867;SDS011;2960;49.142;7.768;2023-08-31T11:45:11;12.30;;;5.77;;
5867;SDS011;2960;49.142;7.768;2023-08-31T11:47:39;12.13;;;5.30;;
5867;SDS011;2960;49.142;7.768;2023-08-31T11:50:09;12.00;;;5.33;;
5867;SDS011;2960;49.142;7.768;2023-08-31T11:52:38;12.30;;;5.53;;
5867;SDS011;2960;49.142;7.768;2023-08-31T11:55:10;12.60;;;5.70;;
5867;SDS011;2960;49.142;7.768;2023-08-31T11:57:38;12.70;;;5.70;;
5867;SDS011;2960;49.142;7.768;2023-08-31T12:00:05;14.10;;;5.90;;
5867;SDS011;2960;49.142;7.768;2023-08-31T12:02:36;11.93;;;5.60;;
5867;SDS011;2960;49.142;7.768;2023-08-31T12:05:03;15.80;;;5.37;;
5867;SDS011;2960;49.142;7.768;2023-08-31T12:07:33;12.07;;;5.57;;
5867;SDS011;2960;49.142;7.768;2023-08-31T12:10:07;11.97;;;5.57;;
5867;SDS011;2960;49.142;7.768;2023-08-31T12:12:35;12.80;;;5.30;;
5867;SDS011;2960;49.142;7.768;2023-08-31T12:15:03;14.93;;;5.60;;
5867;SDS011;2960;49.142;7.768;2023-08-31T12:17:32;12.10;;;5.60;;
5867;SDS011;2960;49.142;7.768;2023-08-31T12:20:05;12.10;;;5.37;;
5867;SDS011;2960;49.142;7.768;2023-08-31T12:22:35;12.07;;;5.97;;
5867;SDS011;2960;49.142;7.768;2023-08-31T12:25:02;11.30;;;5.07;;
5867;SDS011;2960;49.142;7.768;2023-08-31T12:27:30;12.27;;;5.20;;
5867;SDS011;2960;49.142;7.768;2023-08-31T12:29:57;12.20;;;5.10;;
5867;SDS011;2960;49.142;7.768;2023-08-31T12:32:24;12.13;;;5.30;;
5867;SDS011;2960;49.142;7.768;2023-08-31T12:34:51;11.83;;;5.17;;
5867;SDS011;2960;49.142;7.768;2023-08-31T12:37:18;12.93;;;5.40;;
5867;SDS011;2960;49.142;7.768;2023-08-31T12:39:50;12.50;;;5.20;;
5867;SDS011;2960;49.142;7.768;2023-08-31T12:42:17;13.90;;;5.30;;
5867;SDS011;2960;49.142;7.768;2023-08-31T12:44:44;11.60;;;4.70;;
5867;SDS011;2960;49.142;7.768;2023-08-31T12:47:12;11.77;;;5.23;;
5867;SDS011;2960;49.142;7.768;2023-08-31T12:49:39;12.07;;;5.47;;
5867;SDS011;2960;49.142;7.768;2023-08-31T12:52:06;12.00;;;5.30;;
5867;SDS011;2960;49.142;7.768;2023-08-31T12:54:34;11.80;;;5.30;;
5867;SDS011;2960;49.142;7.768;2023-08-31T12:57:03;12.30;;;5.50;;
5867;SDS011;2960;49.142;7.768;2023-08-31T12:59:31;12.80;;;5.00;;
5867;SDS011;2960;49.142;7.768;2023-08-31T13:01:58;13.40;;;5.10;;
5867;SDS011;2960;49.142;7.768;2023-08-31T13:04:25;11.73;;;4.80;;
5867;SDS011;2960;49.142;7.768;2023-08-31T13:06:54;11.77;;;4.87;;
5867;SDS011;2960;49.142;7.768;2023-08-31T13:09:21;11.80;;;5.07;;
5867;SDS011;2960;49.142;7.768;2023-08-31T13:11:48;11.60;;;5.20;;
5867;SDS011;2960;49.142;7.768;2023-08-31T13:14:17;13.10;;;5.37;;
5867;SDS011;2960;49.142;7.768;2023-08-31T13:16:44;12.40;;;5.27;;
5867;SDS011;2960;49.142;7.768;2023-08-31T13:19:11;12.60;;;5.20;;
5867;SDS011;2960;49.142;7.768;2023-08-31T13:21:38;12.10;;;5.40;;
5867;SDS011;2960;49.142;7.768;2023-08-31T13:24:05;14.47;;;5.80;;
5867;SDS011;2960;49.142;7.768;2023-08-31T13:26:33;12.50;;;5.80;;
5867;SDS011;2960;49.142;7.768;2023-08-31T13:29:00;12.30;;;5.40;;
5867;SDS011;2960;49.142;7.768;2023-08-31T13:31:31;12.20;;;5.30;;
5867;SDS011;2960;49.142;7.768;2023-08-31T13:33:58;11.43;;;5.00;;
5867;SDS011;2960;49.142;7.768;2023-08-31T13:36:27;12.90;;;5.30;;
5867;SDS011;2960;49.142;7.768;2023-08-31T13:38:54;12.43;;;5.57;;
5867;SDS011;2960;49.142;7.768;2023-08-31T13:41:21;12.13;;;5.50;;
5867;SDS011;2960;49.142;7.768;2023-08-31T13:43:48;12.23;;;5.40;;
5867;SDS011;2960;49.142;7.768;2023-08-31T13:46:16;12.10;;;5.03;;
5867;SDS011;2960;49.142;7.768;2023-08-31T13:48:45;11.60;;;4.67;;
5867;SDS011;2960;49.142;7.768;2023-08-31T13:51:13;11.93;;;5.13;;
5867;SDS011;2960;49.142;7.768;2023-08-31T13:53:40;11.57;;;5.10;;
5867;SDS011;2960;49.142;7.768;2023-08-31T13:56:07;11.50;;;4.90;;
5867;SDS011;2960;49.142;7.768;2023-08-31T13:58:34;13.87;;;5.20;;
5867;SDS011;2960;49.142;7.768;2023-08-31T14:01:01;11.57;;;5.10;;
5867;SDS011;2960;49.142;7.768;2023-08-31T14:03:28;11.67;;;5.07;;
5867;SDS011;2960;49.142;7.768;2023-08-31T14:05:57;11.60;;;5.17;;
5867;SDS011;2960;49.142;7.768;2023-08-31T14:08:24;11.63;;;4.73;;
5867;SDS011;2960;49.142;7.768;2023-08-31T14:10:52;13.00;;;4.80;;
5867;SDS011;2960;49.142;7.768;2023-08-31T14:13:19;11.50;;;4.60;;
5867;SDS011;2960;49.142;7.768;2023-08-31T14:15:47;11.37;;;4.53;;
5867;SDS011;2960;49.142;7.768;2023-08-31T14:18:14;11.60;;;4.90;;
5867;SDS011;2960;49.142;7.768;2023-08-31T14:20:41;12.10;;;5.23;;
5867;SDS011;2960;49.142;7.768;2023-08-31T14:23:09;11.50;;;5.00;;
5867;SDS011;2960;49.142;7.768;2023-08-31T14:25:36;12.20;;;5.50;;
5867;SDS011;2960;49.142;7.768;2023-08-31T14:28:04;11.83;;;5.37;;
5867;SDS011;2960;49.142;7.768;2023-08-31T14:30:32;12.10;;;5.43;;
5867;SDS011;2960;49.142;7.768;2023-08-31T14:33:01;12.03;;;5.57;;
5867;SDS011;2960;49.142;7.768;2023-08-31T14:35:28;12.00;;;5.50;;
5867;SDS011;2960;49.142;7.768;2023-08-31T14:37:56;11.87;;;5.07;;
5867;SDS011;2960;49.142;7.768;2023-08-31T14:40:25;12.50;;;5.07;;
5867;SDS011;2960;49.142;7.768;2023-08-31T14:42:52;11.40;;;4.87;;
5867;SDS011;2960;49.142;7.768;2023-08-31T14:45:19;12.43;;;5.60;;
5867;SDS011;2960;49.142;7.768;2023-08-31T14:47:46;12.03;;;5.17;;
5867;SDS011;2960;49.142;7.768;2023-08-31T14:50:13;11.17;;;4.63;;
5867;SDS011;2960;49.142;7.768;2023-08-31T14:52:41;11.20;;;4.80;;
5867;SDS011;2960;49.142;7.768;2023-08-31T14:55:08;11.70;;;5.07;;
5867;SDS011;2960;49.142;7.768;2023-08-31T14:57:36;12.70;;;5.47;;
5867;SDS011;2960;49.142;7.768;2023-08-31T15:00:07;11.70;;;5.20;;
5867;SDS011;2960;49.142;7.768;2023-08-31T15:02:35;11.37;;;5.10;;
5867;SDS011;2960;49.142;7.768;2023-08-31T15:05:03;11.50;;;5.10;;
5867;SDS011;2960;49.142;7.768;2023-08-31T15:07:31;11.33;;;4.87;;
5867;SDS011;2960;49.142;7.768;2023-08-31T15:09:58;13.43;;;5.23;;
5867;SDS011;2960;49.142;7.768;2023-08-31T15:12:26;12.33;;;5.10;;
5867;SDS011;2960;49.142;7.768;2023-08-31T15:14:55;12.10;;;5.33;;